Time;durP1;ratioP1;P1;durP2;ratioP2;P2;SDS_P1;SDS_P2;PMS_P1;PMS_P2;Temp;Humidity;BMP_temperature;BMP_pressure;BME280_temperature;BME280_humidity;BME280_pressure;Samples;Min_cycle;Max_cycle;Signal;HPM_P1;HPM_P2
2023/12/22 00:02:13;;;;;;;;;1.00;1.00;;;;;;;;5067158;28;9227;-81
2023/12/22 00:04:40;;;;;;;;;1.00;1.00;;;;;;;;5066525;28;9118;-80
2023/12/22 00:07:10;;;;;;;;;1.67;0.00;;;;;;;;5069591;28;9178;-80
2023/12/22 00:09:37;;;;;;;;;3.00;2.00;;;;;;;;5069772;28;9089;-81
2023/12/22 00:12:05;;;;;;;;;3.67;2.67;;;;;;;;5070436;28;9248;-82
2023/12/22 00:14:32;;;;;;;;;2.00;1.00;;;;;;;;5076813;28;9202;-78
2023/12/22 00:16:59;;;;;;;;;3.00;1.67;;;;;;;;5078550;28;9262;-81
2023/12/22 00:19:27;;;;;;;;;3.00;3.00;;;;;;;;5063342;28;9185;-81
2023/12/22 00:21:54;;;;;;;;;2.33;2.33;;;;;;;;5061238;28;9191;-80
2023/12/22 00:24:23;;;;;;;;;1.00;1.00;;;;;;;;5063288;28;9384;-80
2023/12/22 00:26:50;;;;;;;;;2.67;1.00;;;;;;;;5064535;28;9182;-80
2023/12/22 00:29:17;;;;;;;;;3.00;1.67;;;;;;;;5067521;28;9188;-80
2023/12/22 00:31:45;;;;;;;;;5.00;4.00;;;;;;;;5063754;28;9119;-80
2023/12/22 00:34:13;;;;;;;;;5.00;2.33;;;;;;;;5071893;28;9168;-80
2023/12/22 00:36:40;;;;;;;;;2.00;1.00;;;;;;;;5070551;28;9258;-81
2023/12/22 00:39:08;;;;;;;;;4.00;1.00;;;;;;;;5070038;28;9994;-80
2023/12/22 00:41:37;;;;;;;;;1.00;1.00;;;;;;;;5071627;28;9471;-81
2023/12/22 00:44:04;;;;;;;;;3.33;2.33;;;;;;;;5072171;28;9947;-81
2023/12/22 00:46:32;;;;;;;;;1.00;1.00;;;;;;;;5068710;28;9396;-81
2023/12/22 00:49:01;;;;;;;;;4.33;1.33;;;;;;;;5066629;28;9469;-79
2023/12/22 00:51:34;;;;;;;;;2.00;2.00;;;;;;;;5069462;28;9277;-81
2023/12/22 00:54:01;;;;;;;;;3.33;1.67;;;;;;;;5070100;28;9249;-81
2023/12/22 00:56:31;;;;;;;;;2.67;1.00;;;;;;;;5071517;28;10108;-80
2023/12/22 00:59:00;;;;;;;;;5.00;3.00;;;;;;;;5068594;28;9325;-82
2023/12/22 01:01:28;;;;;;;;;3.67;2.00;;;;;;;;5071542;28;9243;-81
2023/12/22 01:03:57;;;;;;;;;6.67;3.00;;;;;;;;5073454;28;9232;-81
2023/12/22 01:06:24;;;;;;;;;5.67;2.00;;;;;;;;5075637;28;10141;-81
2023/12/22 01:08:52;;;;;;;;;2.33;1.00;;;;;;;;5062218;28;9243;-81
2023/12/22 01:11:19;;;;;;;;;1.00;1.00;;;;;;;;5071651;28;9282;-80
2023/12/22 01:13:47;;;;;;;;;4.33;4.33;;;;;;;;5071568;28;9298;-81
2023/12/22 01:16:18;;;;;;;;;3.00;1.33;;;;;;;;5071230;28;9186;-80
2023/12/22 01:18:45;;;;;;;;;4.00;3.00;;;;;;;;5071464;28;9267;-80
2023/12/22 01:21:12;;;;;;;;;3.00;1.67;;;;;;;;5069562;28;9331;-81
2023/12/22 01:23:42;;;;;;;;;4.00;2.00;;;;;;;;5069986;28;9375;-80
2023/12/22 01:26:10;;;;;;;;;4.00;3.00;;;;;;;;5071473;28;9336;-81
2023/12/22 01:28:37;;;;;;;;;5.33;2.33;;;;;;;;5074991;28;9268;-81
2023/12/22 01:31:05;;;;;;;;;1.67;1.67;;;;;;;;5070889;28;9130;-81
2023/12/22 01:33:34;;;;;;;;;5.00;3.67;;;;;;;;5063628;28;9016;-80
2023/12/22 01:36:01;;;;;;;;;2.67;1.33;;;;;;;;5069630;28;9073;-79
2023/12/22 01:38:29;;;;;;;;;1.00;1.00;;;;;;;;5073365;28;9011;-80
2023/12/22 01:40:59;;;;;;;;;3.00;1.33;;;;;;;;5071286;28;9085;-80
2023/12/22 01:43:27;;;;;;;;;3.00;1.00;;;;;;;;5071281;28;9103;-80
2023/12/22 01:45:59;;;;;;;;;2.00;2.00;;;;;;;;5058505;28;9125;-80
2023/12/22 01:48:28;;;;;;;;;1.00;1.00;;;;;;;;5071653;28;9028;-80
2023/12/22 01:51:00;;;;;;;;;2.00;2.00;;;;;;;;5070796;28;9212;-80
2023/12/22 01:53:30;;;;;;;;;4.67;3.00;;;;;;;;5070539;28;9180;-79
2023/12/22 01:55:59;;;;;;;;;1.67;1.67;;;;;;;;5071430;28;9375;-79
2023/12/22 01:58:30;;;;;;;;;3.00;1.33;;;;;;;;5069173;28;9286;-80
2023/12/22 02:00:58;;;;;;;;;2.67;1.00;;;;;;;;5071222;28;9096;-80
2023/12/22 02:03:25;;;;;;;;;2.00;1.00;;;;;;;;5072016;28;9398;-80
2023/12/22 02:05:53;;;;;;;;;4.00;2.00;;;;;;;;5071612;28;9258;-80
2023/12/22 02:08:29;;;;;;;;;3.00;2.00;;;;;;;;5062510;28;9124;-81
2023/12/22 02:10:57;;;;;;;;;4.00;1.00;;;;;;;;5070281;28;9403;-80
2023/12/22 02:13:23;;;;;;;;;3.67;2.00;;;;;;;;5072901;28;9076;-81
2023/12/22 02:15:55;;;;;;;;;4.00;1.00;;;;;;;;5077050;28;9257;-80
2023/12/22 02:18:25;;;;;;;;;1.67;1.67;;;;;;;;5071892;28;9373;-79
2023/12/22 02:20:56;;;;;;;;;7.00;2.00;;;;;;;;5071560;28;9326;-78
2023/12/22 02:23:25;;;;;;;;;6.00;3.00;;;;;;;;5076320;28;9318;-81
2023/12/22 02:26:01;;;;;;;;;4.00;4.00;;;;;;;;5075335;28;9342;-81
2023/12/22 02:28:29;;;;;;;;;4.00;2.75;;;;;;;;5070689;28;9495;-81
2023/12/22 02:31:01;;;;;;;;;2.00;2.00;;;;;;;;5072432;28;9632;-80
2023/12/22 02:33:32;;;;;;;;;1.25;1.00;;;;;;;;5063041;28;9380;-80
2023/12/22 02:36:04;;;;;;;;;3.00;3.00;;;;;;;;5073912;28;9421;-79
2023/12/22 02:38:35;;;;;;;;;1.75;1.00;;;;;;;;5070618;28;9419;-80
2023/12/22 02:41:02;;;;;;;;;3.00;3.00;;;;;;;;5072495;28;9481;-79
2023/12/22 02:43:29;;;;;;;;;6.25;2.00;;;;;;;;5074332;28;9402;-80
2023/12/22 02:45:56;;;;;;;;;4.00;3.00;;;;;;;;5075993;28;9446;-77
2023/12/22 02:48:26;;;;;;;;;3.00;3.00;;;;;;;;5076821;28;9488;-79
2023/12/22 02:50:53;;;;;;;;;3.00;1.00;;;;;;;;5070689;28;9538;-81
2023/12/22 02:53:21;;;;;;;;;3.00;3.00;;;;;;;;5071075;28;9518;-81
2023/12/22 02:55:49;;;;;;;;;3.00;3.00;;;;;;;;5071693;28;9430;-80
2023/12/22 02:58:17;;;;;;;;;4.00;0.00;;;;;;;;5072961;28;9491;-81
2023/12/22 03:00:44;;;;;;;;;4.00;1.33;;;;;;;;5069022;28;9954;-81
2023/12/22 03:03:13;;;;;;;;;0.67;0.67;;;;;;;;5069559;28;9458;-81
2023/12/22 03:05:40;;;;;;;;;2.00;2.00;;;;;;;;5069262;28;9332;-79
2023/12/22 03:08:07;;;;;;;;;3.00;2.00;;;;;;;;5069316;28;9410;-80
2023/12/22 03:10:36;;;;;;;;;3.33;1.67;;;;;;;;5068485;28;9321;-80
2023/12/22 03:13:05;;;;;;;;;3.00;3.00;;;;;;;;5068517;28;9245;-80
2023/12/22 03:15:32;;;;;;;;;2.67;1.00;;;;;;;;5058966;28;9400;-80
2023/12/22 03:18:04;;;;;;;;;4.00;1.67;;;;;;;;5070252;28;9316;-80
2023/12/22 03:20:32;;;;;;;;;5.00;2.00;;;;;;;;5072254;28;9224;-80
2023/12/22 03:23:01;;;;;;;;;1.67;1.67;;;;;;;;5070029;28;10169;-81
2023/12/22 03:25:28;;;;;;;;;2.00;2.00;;;;;;;;5068656;28;9166;-79
2023/12/22 03:27:56;;;;;;;;;3.00;2.00;;;;;;;;5069737;28;9307;-80
2023/12/22 03:30:24;;;;;;;;;4.00;4.00;;;;;;;;5069428;28;9329;-80
2023/12/22 03:32:51;;;;;;;;;2.67;1.33;;;;;;;;5069019;28;9364;-80
2023/12/22 03:35:19;;;;;;;;;3.00;1.67;;;;;;;;5065315;28;9198;-80
2023/12/22 03:37:46;;;;;;;;;2.00;1.00;;;;;;;;5066311;28;9231;-81
2023/12/22 03:40:14;;;;;;;;;1.00;1.00;;;;;;;;5069077;28;9079;-81
2023/12/22 03:42:41;;;;;;;;;1.67;1.00;;;;;;;;5069619;28;9189;-80
2023/12/22 03:45:09;;;;;;;;;3.00;1.33;;;;;;;;5069431;28;9299;-79
2023/12/22 03:47:37;;;;;;;;;1.00;1.00;;;;;;;;5059098;28;9201;-80
2023/12/22 03:50:06;;;;;;;;;3.67;2.00;;;;;;;;5068353;28;9311;-80
2023/12/22 03:52:34;;;;;;;;;2.00;2.00;;;;;;;;5069473;28;9249;-80
2023/12/22 03:55:01;;;;;;;;;1.00;1.00;;;;;;;;5070292;28;9357;-80
2023/12/22 03:57:28;;;;;;;;;3.00;1.67;;;;;;;;5072482;28;9334;-80
2023/12/22 03:59:56;;;;;;;;;2.00;1.00;;;;;;;;5072123;28;9251;-80
2023/12/22 04:02:23;;;;;;;;;1.00;1.00;;;;;;;;5075398;28;9222;-79
2023/12/22 04:04:53;;;;;;;;;2.00;1.00;;;;;;;;5075506;28;9660;-79
2023/12/22 04:07:20;;;;;;;;;1.00;1.00;;;;;;;;5071279;28;9369;-78
2023/12/22 04:09:47;;;;;;;;;3.67;1.00;;;;;;;;5071387;28;9165;-80
2023/12/22 04:12:15;;;;;;;;;2.00;1.00;;;;;;;;5061007;28;9162;-79
2023/12/22 04:14:42;;;;;;;;;3.00;2.00;;;;;;;;5067375;28;9251;-79
2023/12/22 04:17:09;;;;;;;;;1.33;0.00;;;;;;;;5072055;28;9201;-80
2023/12/22 04:19:37;;;;;;;;;0.00;0.00;;;;;;;;5070601;28;9095;-79
2023/12/22 04:22:06;;;;;;;;;2.67;1.67;;;;;;;;5069767;28;9196;-80
2023/12/22 04:24:33;;;;;;;;;3.33;1.00;;;;;;;;5070700;28;9088;-80
2023/12/22 04:27:04;;;;;;;;;2.00;1.00;;;;;;;;5070033;28;9015;-79
2023/12/22 04:29:32;;;;;;;;;1.00;1.00;;;;;;;;5060701;28;9028;-78
2023/12/22 04:32:02;;;;;;;;;0.00;0.00;;;;;;;;5074092;28;8954;-80
2023/12/22 04:34:29;;;;;;;;;2.00;1.00;;;;;;;;5064319;28;9020;-80
2023/12/22 04:36:56;;;;;;;;;4.00;1.00;;;;;;;;5068500;28;8995;-81
2023/12/22 04:39:25;;;;;;;;;2.33;1.00;;;;;;;;5072402;28;8942;-79
2023/12/22 04:41:52;;;;;;;;;2.33;2.33;;;;;;;;5071300;28;8950;-80
2023/12/22 04:44:20;;;;;;;;;0.67;0.67;;;;;;;;5073019;28;8964;-80
2023/12/22 04:46:47;;;;;;;;;4.00;1.00;;;;;;;;5071734;28;8872;-80
2023/12/22 04:49:14;;;;;;;;;0.00;0.00;;;;;;;;5073317;28;9076;-80
2023/12/22 04:51:41;;;;;;;;;1.33;1.00;;;;;;;;5070246;28;9012;-80
2023/12/22 04:54:08;;;;;;;;;2.00;0.00;;;;;;;;5072133;28;8949;-79
2023/12/22 04:56:37;;;;;;;;;2.25;1.00;;;;;;;;5068571;28;8866;-81
2023/12/22 04:59:04;;;;;;;;;0.00;0.00;;;;;;;;5072209;28;8858;-81
2023/12/22 05:01:32;;;;;;;;;0.00;0.00;;;;;;;;5067045;28;9752;-80
2023/12/22 05:03:59;;;;;;;;;1.33;0.00;;;;;;;;5071252;28;9991;-80
2023/12/22 05:06:28;;;;;;;;;1.00;1.00;;;;;;;;5071734;28;8934;-80
2023/12/22 05:08:58;;;;;;;;;1.00;0.00;;;;;;;;5075407;28;8941;-79
2023/12/22 05:11:25;;;;;;;;;1.00;1.00;;;;;;;;5069338;28;8949;-80
2023/12/22 05:13:53;;;;;;;;;2.33;1.33;;;;;;;;5069812;28;8944;-79
2023/12/22 05:16:21;;;;;;;;;1.50;0.75;;;;;;;;5059351;28;9009;-80
2023/12/22 05:18:48;;;;;;;;;0.33;0.00;;;;;;;;5073757;28;8877;-77
2023/12/22 05:21:15;;;;;;;;;2.67;1.00;;;;;;;;5074983;28;8979;-77
2023/12/22 05:23:43;;;;;;;;;0.00;0.00;;;;;;;;5071978;28;9024;-80
2023/12/22 05:26:10;;;;;;;;;1.00;1.00;;;;;;;;5069611;28;8989;-79
2023/12/22 05:28:40;;;;;;;;;1.50;0.00;;;;;;;;5070977;28;9079;-79
2023/12/22 05:31:09;;;;;;;;;1.00;1.00;;;;;;;;5070648;28;8872;-79
2023/12/22 05:33:37;;;;;;;;;1.33;1.33;;;;;;;;5070949;28;8944;-80
2023/12/22 05:36:05;;;;;;;;;2.00;0.00;;;;;;;;5071245;28;9129;-80
2023/12/22 05:38:32;;;;;;;;;1.33;1.33;;;;;;;;5070846;28;9136;-80
2023/12/22 05:40:59;;;;;;;;;0.00;0.00;;;;;;;;5070424;28;9038;-81
2023/12/22 05:43:29;;;;;;;;;1.00;1.00;;;;;;;;5070410;28;9123;-80
2023/12/22 05:45:57;;;;;;;;;0.67;0.67;;;;;;;;5073069;28;9045;-82
2023/12/22 05:48:27;;;;;;;;;2.00;0.00;;;;;;;;5072888;28;9092;-80
2023/12/22 05:50:55;;;;;;;;;0.00;0.00;;;;;;;;5076818;28;9097;-81
2023/12/22 05:53:22;;;;;;;;;1.00;1.00;;;;;;;;5073460;28;9037;-78
2023/12/22 05:55:49;;;;;;;;;0.00;0.00;;;;;;;;5067796;28;9179;-80
2023/12/22 05:58:17;;;;;;;;;0.00;0.00;;;;;;;;5077377;28;9123;-81
2023/12/22 06:00:44;;;;;;;;;2.00;1.00;;;;;;;;5068569;28;9080;-79
2023/12/22 06:03:11;;;;;;;;;1.33;0.00;;;;;;;;5062117;28;9034;-77
2023/12/22 06:05:42;;;;;;;;;1.00;1.00;;;;;;;;5064736;28;9196;-80
2023/12/22 06:08:10;;;;;;;;;1.33;0.00;;;;;;;;5063451;28;9118;-83
2023/12/22 06:10:39;;;;;;;;;4.00;1.00;;;;;;;;5072541;28;8930;-83
2023/12/22 06:13:06;;;;;;;;;2.00;0.00;;;;;;;;5073182;28;8956;-77
2023/12/22 06:15:34;;;;;;;;;2.00;0.00;;;;;;;;5060554;28;8953;-77
2023/12/22 06:18:01;;;;;;;;;0.00;0.00;;;;;;;;5071016;28;9016;-81
2023/12/22 06:20:28;;;;;;;;;0.33;0.33;;;;;;;;5069850;28;9083;-80
2023/12/22 06:22:56;;;;;;;;;5.00;0.00;;;;;;;;5067388;28;9241;-82
2023/12/22 06:25:24;;;;;;;;;2.00;0.00;;;;;;;;5069170;28;9218;-81
2023/12/22 06:27:51;;;;;;;;;2.33;1.00;;;;;;;;5069513;28;9281;-79
2023/12/22 06:30:18;;;;;;;;;2.33;1.00;;;;;;;;5069074;28;9176;-78
2023/12/22 06:32:45;;;;;;;;;2.33;0.00;;;;;;;;5071549;28;9102;-83
2023/12/22 06:35:12;;;;;;;;;1.00;1.00;;;;;;;;5071367;28;9296;-82
2023/12/22 06:37:40;;;;;;;;;0.33;0.33;;;;;;;;5073046;28;9181;-80
2023/12/22 06:40:09;;;;;;;;;2.00;2.00;;;;;;;;5071458;28;9255;-81
2023/12/22 06:42:36;;;;;;;;;3.00;0.00;;;;;;;;5070549;28;9301;-83
2023/12/22 06:45:04;;;;;;;;;0.00;0.00;;;;;;;;5068558;28;9271;-83
2023/12/22 06:47:31;;;;;;;;;1.00;1.00;;;;;;;;5069607;28;9185;-82
2023/12/22 06:50:01;;;;;;;;;1.00;1.00;;;;;;;;5068303;28;9088;-81
2023/12/22 06:52:31;;;;;;;;;0.00;0.00;;;;;;;;5069132;28;9188;-85
2023/12/22 06:54:59;;;;;;;;;0.00;0.00;;;;;;;;5069751;28;9395;-83
2023/12/22 06:57:27;;;;;;;;;0.00;0.00;;;;;;;;5069143;28;9126;-81
2023/12/22 06:59:55;;;;;;;;;0.00;0.00;;;;;;;;5068896;28;9111;-79
2023/12/22 07:02:22;;;;;;;;;0.00;0.00;;;;;;;;5069138;28;9086;-82
2023/12/22 07:05:07;;;;;;;;;0.33;0.33;;;;;;;;5069913;28;9348;-81
2023/12/22 07:07:37;;;;;;;;;1.00;1.00;;;;;;;;5069832;28;9179;-81
2023/12/22 07:10:04;;;;;;;;;1.00;0.00;;;;;;;;5069470;28;9016;-82
2023/12/22 07:12:33;;;;;;;;;1.00;1.00;;;;;;;;5068621;28;9008;-77
2023/12/22 07:15:00;;;;;;;;;0.67;0.00;;;;;;;;5068689;28;9076;-76
2023/12/22 07:17:28;;;;;;;;;2.00;0.33;;;;;;;;5067398;28;9121;-76
2023/12/22 07:19:57;;;;;;;;;1.67;1.00;;;;;;;;5069353;28;9025;-75
2023/12/22 07:22:24;;;;;;;;;1.00;1.00;;;;;;;;5066580;28;9118;-77
2023/12/22 07:24:52;;;;;;;;;0.00;0.00;;;;;;;;5068696;28;9135;-78
2023/12/22 07:27:20;;;;;;;;;0.00;0.00;;;;;;;;5068652;28;9018;-79
2023/12/22 07:29:48;;;;;;;;;0.00;0.00;;;;;;;;5069263;28;9088;-78
2023/12/22 07:32:16;;;;;;;;;0.33;0.33;;;;;;;;5068299;28;9042;-79
2023/12/22 07:34:43;;;;;;;;;0.00;0.00;;;;;;;;5070466;28;9087;-77
2023/12/22 07:37:10;;;;;;;;;0.33;0.00;;;;;;;;5071260;28;8958;-79
2023/12/22 07:39:37;;;;;;;;;0.00;0.00;;;;;;;;5073916;28;8948;-78
2023/12/22 07:42:08;;;;;;;;;3.33;0.00;;;;;;;;5070167;28;9079;-78
2023/12/22 07:44:35;;;;;;;;;3.00;0.00;;;;;;;;5072401;28;9077;-81
2023/12/22 07:47:04;;;;;;;;;3.67;0.00;;;;;;;;5074490;28;9012;-78
2023/12/22 07:49:33;;;;;;;;;0.00;0.00;;;;;;;;5075816;28;9042;-78
2023/12/22 07:52:00;;;;;;;;;0.00;0.00;;;;;;;;5075564;28;9178;-78
2023/12/22 07:54:27;;;;;;;;;1.33;0.00;;;;;;;;5071728;28;9267;-77
2023/12/22 07:56:55;;;;;;;;;1.00;1.00;;;;;;;;5067824;28;9083;-78
2023/12/22 07:59:22;;;;;;;;;1.33;0.00;;;;;;;;5067945;28;9215;-80
2023/12/22 08:01:49;;;;;;;;;2.00;0.67;;;;;;;;5069987;28;9052;-76
2023/12/22 08:04:17;;;;;;;;;0.00;0.00;;;;;;;;5066319;28;9077;-78
2023/12/22 08:06:45;;;;;;;;;0.00;0.00;;;;;;;;5056224;28;9167;-79
2023/12/22 08:09:12;;;;;;;;;0.00;0.00;;;;;;;;5067762;28;9099;-77
2023/12/22 08:11:40;;;;;;;;;1.00;1.00;;;;;;;;5068410;28;9084;-79
2023/12/22 08:14:07;;;;;;;;;1.67;1.67;;;;;;;;5066428;28;9206;-76
2023/12/22 08:16:34;;;;;;;;;1.00;1.00;;;;;;;;5055364;28;9094;-77
2023/12/22 08:19:01;;;;;;;;;1.33;1.00;;;;;;;;5066764;28;9178;-78
2023/12/22 08:21:30;;;;;;;;;2.00;0.00;;;;;;;;5068461;28;9343;-79
2023/12/22 08:23:57;;;;;;;;;1.67;0.00;;;;;;;;5068834;28;9188;-78
2023/12/22 08:26:24;;;;;;;;;0.33;0.33;;;;;;;;5070698;28;9141;-78
2023/12/22 08:28:51;;;;;;;;;0.67;0.33;;;;;;;;5070381;28;9936;-78
2023/12/22 08:31:18;;;;;;;;;0.00;0.00;;;;;;;;5067505;28;9164;-77
2023/12/22 08:33:46;;;;;;;;;2.00;0.00;;;;;;;;5067368;28;9092;-80
2023/12/22 08:36:13;;;;;;;;;2.00;0.00;;;;;;;;5067512;28;9061;-76
2023/12/22 08:38:41;;;;;;;;;0.00;0.00;;;;;;;;5067687;28;9014;-78
2023/12/22 08:41:10;;;;;;;;;1.33;1.00;;;;;;;;5067173;28;9175;-77
2023/12/22 08:43:39;;;;;;;;;2.00;0.33;;;;;;;;5067835;28;9176;-75
2023/12/22 08:46:07;;;;;;;;;0.00;0.00;;;;;;;;5067330;28;9022;-78
2023/12/22 08:48:34;;;;;;;;;1.33;0.00;;;;;;;;5066538;28;9018;-78
2023/12/22 08:51:01;;;;;;;;;1.33;0.00;;;;;;;;5067518;28;9076;-78
2023/12/22 08:53:30;;;;;;;;;2.00;1.00;;;;;;;;5063464;28;9266;-78
2023/12/22 08:55:58;;;;;;;;;1.00;0.00;;;;;;;;5066263;28;9139;-76
2023/12/22 08:58:25;;;;;;;;;0.00;0.00;;;;;;;;5066741;28;9084;-76
2023/12/22 09:00:52;;;;;;;;;0.33;0.33;;;;;;;;5066807;28;9134;-77
2023/12/22 09:03:20;;;;;;;;;1.00;1.00;;;;;;;;5067003;28;9004;-76
2023/12/22 09:05:47;;;;;;;;;0.67;0.67;;;;;;;;5067884;28;8945;-77
2023/12/22 09:08:16;;;;;;;;;2.00;0.00;;;;;;;;5066049;28;9049;-77
2023/12/22 09:10:45;;;;;;;;;0.00;0.00;;;;;;;;5067811;28;9094;-78
2023/12/22 09:13:13;;;;;;;;;0.00;0.00;;;;;;;;5063096;28;9696;-78
2023/12/22 09:15:41;;;;;;;;;0.00;0.00;;;;;;;;5057837;28;9041;-78
2023/12/22 09:18:08;;;;;;;;;2.75;0.00;;;;;;;;5071117;28;8965;-77
2023/12/22 09:20:35;;;;;;;;;0.00;0.00;;;;;;;;5071393;28;9725;-77
2023/12/22 09:23:06;;;;;;;;;0.00;0.00;;;;;;;;5072459;28;9027;-78
2023/12/22 09:25:33;;;;;;;;;0.00;0.00;;;;;;;;5073669;28;9687;-76
2023/12/22 09:28:01;;;;;;;;;1.00;1.00;;;;;;;;5073051;28;9027;-77
2023/12/22 09:30:29;;;;;;;;;0.67;0.67;;;;;;;;5073831;28;9026;-78
2023/12/22 09:32:56;;;;;;;;;0.67;0.33;;;;;;;;5065726;28;8930;-79
2023/12/22 09:35:25;;;;;;;;;0.67;0.67;;;;;;;;5074741;28;9610;-76
2023/12/22 09:37:52;;;;;;;;;0.00;0.00;;;;;;;;5076339;28;8927;-77
2023/12/22 09:40:19;;;;;;;;;0.00;0.00;;;;;;;;5075433;28;9111;-77
2023/12/22 09:42:47;;;;;;;;;0.00;0.00;;;;;;;;5073300;28;9149;-76
2023/12/22 09:45:14;;;;;;;;;1.33;0.00;;;;;;;;5068804;28;8942;-78
2023/12/22 09:47:46;;;;;;;;;1.33;0.00;;;;;;;;5071303;28;9751;-77
2023/12/22 09:50:16;;;;;;;;;1.33;0.00;;;;;;;;5071521;28;8928;-78
2023/12/22 09:52:45;;;;;;;;;1.00;0.00;;;;;;;;5072136;28;8960;-76
2023/12/22 09:55:13;;;;;;;;;0.50;0.00;;;;;;;;5070671;28;8835;-78
2023/12/22 09:57:40;;;;;;;;;0.00;0.00;;;;;;;;5069934;28;8996;-74
2023/12/22 10:00:13;;;;;;;;;0.00;0.00;;;;;;;;5069787;28;8839;-75
2023/12/22 10:02:42;;;;;;;;;1.00;1.00;;;;;;;;5070028;28;8889;-74
2023/12/22 10:05:10;;;;;;;;;0.00;0.00;;;;;;;;5059335;28;8955;-76
2023/12/22 10:07:38;;;;;;;;;3.00;1.00;;;;;;;;5070085;28;8846;-74
2023/12/22 10:10:07;;;;;;;;;1.75;0.00;;;;;;;;5071502;28;8866;-75
2023/12/22 10:12:37;;;;;;;;;0.00;0.00;;;;;;;;5069724;28;8857;-76
2023/12/22 10:15:07;;;;;;;;;1.50;0.00;;;;;;;;5074321;28;8839;-75
2023/12/22 10:17:34;;;;;;;;;0.00;0.00;;;;;;;;5074395;28;8865;-77
2023/12/22 10:20:03;;;;;;;;;0.00;0.00;;;;;;;;5073931;28;8890;-75
2023/12/22 10:22:30;;;;;;;;;0.00;0.00;;;;;;;;5069173;28;8987;-75
2023/12/22 10:25:00;;;;;;;;;2.00;0.25;;;;;;;;5070309;28;9005;-80
2023/12/22 10:27:27;;;;;;;;;2.00;0.00;;;;;;;;5068764;28;8846;-74
2023/12/22 10:29:57;;;;;;;;;0.00;0.00;;;;;;;;5069990;28;8855;-77
2023/12/22 10:32:24;;;;;;;;;0.00;0.00;;;;;;;;5068848;28;8799;-78
2023/12/22 10:34:58;;;;;;;;;2.00;0.00;;;;;;;;5069033;28;8969;-77
2023/12/22 10:37:26;;;;;;;;;0.00;0.00;;;;;;;;5069588;28;8842;-77
2023/12/22 10:39:55;;;;;;;;;0.00;0.00;;;;;;;;5069868;28;8858;-76
2023/12/22 10:42:23;;;;;;;;;2.00;0.00;;;;;;;;5069591;28;8973;-76
2023/12/22 10:44:50;;;;;;;;;0.00;0.00;;;;;;;;5069632;28;8867;-76
2023/12/22 10:47:21;;;;;;;;;0.00;0.00;;;;;;;;5069810;28;8843;-76
2023/12/22 10:49:48;;;;;;;;;2.67;0.00;;;;;;;;5068852;28;8866;-77
2023/12/22 10:52:18;;;;;;;;;0.00;0.00;;;;;;;;5070593;28;8962;-78
2023/12/22 10:54:46;;;;;;;;;0.00;0.00;;;;;;;;5072680;28;8877;-76
2023/12/22 10:57:14;;;;;;;;;2.00;0.50;;;;;;;;5068942;28;8854;-77
2023/12/22 10:59:46;;;;;;;;;0.50;0.00;;;;;;;;5068520;28;8863;-75
2023/12/22 11:02:17;;;;;;;;;0.75;0.75;;;;;;;;5069071;28;8818;-75
2023/12/22 11:05:00;;;;;;;;;1.00;1.00;;;;;;;;5068384;28;8866;-76
2023/12/22 11:07:27;;;;;;;;;1.25;0.00;;;;;;;;5073678;28;8858;-76
2023/12/22 11:09:58;;;;;;;;;0.00;0.00;;;;;;;;5074860;28;8878;-75
2023/12/22 11:12:33;;;;;;;;;2.00;0.00;;;;;;;;5075971;28;9671;-76
2023/12/22 11:15:01;;;;;;;;;0.25;0.00;;;;;;;;5068921;28;8849;-76
2023/12/22 11:17:31;;;;;;;;;0.00;0.00;;;;;;;;5066013;28;8880;-73
2023/12/22 11:20:02;;;;;;;;;2.25;0.25;;;;;;;;5076251;28;8847;-76
2023/12/22 11:22:37;;;;;;;;;0.75;0.75;;;;;;;;5073309;28;8922;-79
2023/12/22 11:25:08;;;;;;;;;1.00;0.00;;;;;;;;5077858;28;8846;-75
2023/12/22 11:27:36;;;;;;;;;0.00;0.00;;;;;;;;5073971;28;8972;-75
2023/12/22 11:30:04;;;;;;;;;0.00;0.00;;;;;;;;5072215;28;8855;-75
2023/12/22 11:32:31;;;;;;;;;1.00;0.00;;;;;;;;5070763;28;8863;-76
2023/12/22 11:37:48;;;;;;;;;1.00;0.00;;;;;;;;5003771;28;8901;-75
2023/12/22 11:40:17;;;;;;;;;2.00;1.00;;;;;;;;5066110;28;8963;-76
2023/12/22 11:42:49;;;;;;;;;1.00;1.00;;;;;;;;5071047;28;8835;-76
2023/12/22 11:45:16;;;;;;;;;1.00;0.00;;;;;;;;5061600;28;8851;-74
2023/12/22 11:47:43;;;;;;;;;0.00;0.00;;;;;;;;5068556;28;8855;-76
2023/12/22 11:50:11;;;;;;;;;0.00;0.00;;;;;;;;5059260;28;9800;-74
2023/12/22 11:52:39;;;;;;;;;2.50;1.00;;;;;;;;5067828;28;9641;-75
2023/12/22 11:55:07;;;;;;;;;3.00;1.00;;;;;;;;5068596;28;8854;-75
2023/12/22 11:57:40;;;;;;;;;1.00;1.00;;;;;;;;5068789;28;8819;-75
2023/12/22 12:00:10;;;;;;;;;1.00;1.00;;;;;;;;5067731;28;8861;-74
2023/12/22 12:02:39;;;;;;;;;2.00;0.00;;;;;;;;5071355;28;8835;-75
2023/12/22 12:05:11;;;;;;;;;1.00;1.00;;;;;;;;5070217;28;8839;-76
2023/12/22 12:11:14;;;;;;;;;0.75;0.75;;;;;;;;4937265;28;8865;-75
2023/12/22 12:13:45;;;;;;;;;2.00;0.25;;;;;;;;4966991;28;8896;-71
2023/12/22 12:16:13;;;;;;;;;1.00;1.00;;;;;;;;4968420;28;8863;-75
2023/12/22 12:18:40;;;;;;;;;0.00;0.00;;;;;;;;5011955;28;8906;-73
2023/12/22 12:21:08;;;;;;;;;3.00;1.25;;;;;;;;5067743;28;8881;-75
2023/12/22 12:23:35;;;;;;;;;2.00;2.00;;;;;;;;5068290;28;8855;-75
2023/12/22 12:26:03;;;;;;;;;0.75;0.75;;;;;;;;5067765;28;8839;-77
2023/12/22 12:28:32;;;;;;;;;1.50;1.00;;;;;;;;5067701;28;8854;-79
2023/12/22 12:31:01;;;;;;;;;2.50;0.75;;;;;;;;5065386;28;8900;-78
2023/12/22 12:33:29;;;;;;;;;2.00;0.75;;;;;;;;5065508;28;8900;-75
2023/12/22 12:35:58;;;;;;;;;2.00;0.75;;;;;;;;5066534;28;8855;-75
2023/12/22 12:38:37;;;;;;;;;5.75;1.00;;;;;;;;5067291;28;8881;-75
2023/12/22 12:41:06;;;;;;;;;0.75;0.75;;;;;;;;5068121;28;8872;-74
2023/12/22 12:43:33;;;;;;;;;3.25;2.75;;;;;;;;5067403;28;8860;-75
2023/12/22 12:46:06;;;;;;;;;2.25;2.00;;;;;;;;5071236;28;9008;-79
2023/12/22 12:48:33;;;;;;;;;3.25;1.50;;;;;;;;5069725;28;8974;-76
2023/12/22 12:51:04;;;;;;;;;2.75;2.00;;;;;;;;5073095;28;8973;-76
2023/12/22 12:53:32;;;;;;;;;3.00;3.00;;;;;;;;5071582;28;10368;-76
2023/12/22 12:56:00;;;;;;;;;2.00;2.00;;;;;;;;5072069;28;8850;-76
2023/12/22 12:58:29;;;;;;;;;2.50;1.75;;;;;;;;5071405;28;9614;-76
2023/12/22 13:01:07;;;;;;;;;1.50;1.00;;;;;;;;5072722;28;8821;-76
2023/12/22 13:03:34;;;;;;;;;1.50;1.00;;;;;;;;5073731;28;8961;-76
2023/12/22 13:06:09;;;;;;;;;2.00;1.75;;;;;;;;5073889;28;8880;-77
2023/12/22 13:08:40;;;;;;;;;2.00;0.50;;;;;;;;5071843;28;8986;-76
2023/12/22 13:11:07;;;;;;;;;0.00;0.00;;;;;;;;5065180;28;8941;-75
2023/12/22 13:13:42;;;;;;;;;2.00;2.00;;;;;;;;5067699;28;8945;-75
2023/12/22 13:16:11;;;;;;;;;0.50;0.50;;;;;;;;5068967;28;8846;-75
2023/12/22 13:18:38;;;;;;;;;2.00;2.00;;;;;;;;5075333;28;9597;-75
2023/12/22 13:21:05;;;;;;;;;1.25;1.00;;;;;;;;5072243;28;8886;-75
2023/12/22 13:23:33;;;;;;;;;5.25;2.75;;;;;;;;5072492;28;8935;-76
2023/12/22 13:26:00;;;;;;;;;6.75;2.00;;;;;;;;5071035;28;8981;-77
2023/12/22 13:28:28;;;;;;;;;2.00;1.00;;;;;;;;5071319;28;8920;-77
2023/12/22 13:30:58;;;;;;;;;1.50;1.00;;;;;;;;5069980;28;8807;-77
2023/12/22 13:33:28;;;;;;;;;0.00;0.00;;;;;;;;5070500;28;8972;-75
2023/12/22 13:36:00;;;;;;;;;1.25;1.25;;;;;;;;5070467;28;8851;-75
2023/12/22 13:38:27;;;;;;;;;3.75;1.00;;;;;;;;5067253;28;8870;-74
2023/12/22 13:40:55;;;;;;;;;3.50;2.00;;;;;;;;5069068;28;8966;-77
2023/12/22 13:43:22;;;;;;;;;4.75;1.50;;;;;;;;5070251;28;8884;-77
2023/12/22 13:45:53;;;;;;;;;3.00;1.25;;;;;;;;5069907;28;8847;-75
2023/12/22 13:48:20;;;;;;;;;1.75;1.00;;;;;;;;5071216;28;8854;-77
2023/12/22 13:50:58;;;;;;;;;1.75;1.75;;;;;;;;5073047;28;8893;-76
2023/12/22 13:53:25;;;;;;;;;5.50;1.00;;;;;;;;5071105;28;9679;-76
2023/12/22 13:55:56;;;;;;;;;1.00;1.00;;;;;;;;5070425;28;8986;-76
2023/12/22 13:58:23;;;;;;;;;1.00;0.75;;;;;;;;5068791;28;8858;-77
2023/12/22 14:00:50;;;;;;;;;5.50;1.75;;;;;;;;5063161;28;8791;-76
2023/12/22 14:03:21;;;;;;;;;2.75;0.00;;;;;;;;5063940;28;9606;-76
2023/12/22 14:05:49;;;;;;;;;4.50;2.00;;;;;;;;5064110;28;8996;-76
2023/12/22 14:08:17;;;;;;;;;1.50;1.25;;;;;;;;5068614;28;8867;-77
2023/12/22 14:10:48;;;;;;;;;2.50;2.50;;;;;;;;5064237;28;8858;-76
2023/12/22 14:13:15;;;;;;;;;2.25;1.00;;;;;;;;5069508;28;8861;-77
2023/12/22 14:15:44;;;;;;;;;2.00;2.00;;;;;;;;5057290;28;8884;-77
2023/12/22 14:18:14;;;;;;;;;2.00;0.25;;;;;;;;5068956;28;8870;-75
2023/12/22 14:20:41;;;;;;;;;6.00;3.00;;;;;;;;5068101;28;8871;-75
2023/12/22 14:23:11;;;;;;;;;1.00;1.00;;;;;;;;5070213;28;8870;-76
2023/12/22 14:25:40;;;;;;;;;0.25;0.25;;;;;;;;5068293;28;8859;-76
2023/12/22 14:28:07;;;;;;;;;2.00;2.00;;;;;;;;5069712;28;8969;-77
2023/12/22 14:30:34;;;;;;;;;4.75;2.00;;;;;;;;5069105;28;8808;-76
2023/12/22 14:33:02;;;;;;;;;3.75;1.00;;;;;;;;5069869;28;8914;-76
2023/12/22 14:35:29;;;;;;;;;1.75;1.75;;;;;;;;5068962;28;9680;-76
2023/12/22 14:37:56;;;;;;;;;3.75;2.25;;;;;;;;5069094;28;8878;-77
2023/12/22 14:40:24;;;;;;;;;2.00;0.25;;;;;;;;5068912;28;8910;-76
2023/12/22 14:42:53;;;;;;;;;0.75;0.75;;;;;;;;5069876;28;8951;-77
2023/12/22 14:45:22;;;;;;;;;3.75;1.00;;;;;;;;5068739;28;8837;-76
2023/12/22 14:47:49;;;;;;;;;3.00;1.00;;;;;;;;5070321;28;8843;-77
2023/12/22 14:50:17;;;;;;;;;1.25;1.00;;;;;;;;5066428;28;8868;-77
2023/12/22 14:52:46;;;;;;;;;2.00;2.00;;;;;;;;5063915;28;8858;-76
2023/12/22 14:55:13;;;;;;;;;2.25;1.25;;;;;;;;5070054;28;8867;-75
2023/12/22 14:57:40;;;;;;;;;0.75;0.75;;;;;;;;5068057;28;8932;-75
2023/12/22 15:00:12;;;;;;;;;1.00;1.00;;;;;;;;5069765;28;8858;-76
2023/12/22 15:02:43;;;;;;;;;2.00;2.00;;;;;;;;5071405;28;8850;-76
2023/12/22 15:05:10;;;;;;;;;3.00;1.00;;;;;;;;5067592;28;8877;-77
2023/12/22 15:07:37;;;;;;;;;1.00;1.00;;;;;;;;5066010;28;8855;-75
2023/12/22 15:10:05;;;;;;;;;3.00;1.00;;;;;;;;5069270;28;8884;-77